Time;durP1;ratioP1;P1;durP2;ratioP2;P2;SDS_P1;SDS_P2;PMS_P1;PMS_P2;Temp;Humidity;BMP_temperature;BMP_pressure;BME280_temperature;BME280_humidity;BME280_pressure;Samples;Min_cycle;Max_cycle;Signal;HPM_P1;HPM_P2
2022/08/09 00:01:04;;;;;;;4.18;2.42;;;19.40;88.80;;;18.91;74.38;101954.72;4169843;28;20044;-72
2022/08/09 00:03:05;;;;;;;5.57;2.40;;;19.30;89.00;;;18.92;74.51;101950.19;4155182;28;20022;-71
2022/08/09 00:05:06;;;;;;;5.53;2.33;;;19.30;89.30;;;18.90;74.18;101947.72;4154950;28;20084;-71
2022/08/09 00:07:07;;;;;;;4.47;2.00;;;19.30;89.40;;;18.89;74.55;101954.06;4154988;28;20037;-72
2022/08/09 00:09:08;;;;;;;5.38;2.40;;;19.30;89.50;;;18.86;74.83;101954.44;4153638;28;20026;-71
2022/08/09 00:11:09;;;;;;;5.97;2.50;;;19.30;89.70;;;18.84;74.96;101953.78;4149059;28;20027;-71
2022/08/09 00:13:10;;;;;;;6.53;2.10;;;19.30;89.70;;;18.81;75.05;101945.31;4146217;28;20520;-72
2022/08/09 00:15:11;;;;;;;4.45;2.38;;;19.20;89.70;;;18.78;75.31;101942.00;4153371;28;20449;-71
2022/08/09 00:17:12;;;;;;;6.25;2.35;;;19.20;90.00;;;18.72;75.57;101947.22;4154578;28;20104;-72
2022/08/09 00:19:13;;;;;;;4.45;2.38;;;19.20;90.00;;;18.66;75.78;101935.41;4150205;28;20026;-71
2022/08/09 00:21:14;;;;;;;6.05;2.45;;;19.10;90.10;;;18.65;75.84;101944.41;4153581;28;20068;-71
2022/08/09 00:23:15;;;;;;;4.60;2.28;;;19.10;90.20;;;18.64;76.28;101941.91;4137280;28;20389;-71
2022/08/09 00:25:16;;;;;;;5.43;2.63;;;19.10;90.30;;;18.60;76.93;101945.97;4143326;28;20532;-71
2022/08/09 00:27:16;;;;;;;4.78;2.35;;;19.00;90.40;;;18.57;76.93;101946.34;4137178;28;20031;-71
2022/08/09 00:29:17;;;;;;;6.43;2.63;;;19.00;90.50;;;18.54;77.05;101944.00;4128247;28;20544;-72
2022/08/09 00:31:22;;;;;;;4.15;2.30;;;19.00;90.60;;;18.48;77.35;101934.00;4131556;28;20124;-71
2022/08/09 00:33:23;;;;;;;4.88;2.15;;;19.00;90.60;;;18.39;77.60;101945.75;4137033;28;20030;-71
2022/08/09 00:35:24;;;;;;;4.80;1.88;;;18.90;90.70;;;18.39;77.58;101941.25;4137148;28;20097;-71
2022/08/09 00:37:26;;;;;;;4.00;1.80;;;18.90;90.70;;;18.35;78.00;101941.78;4137263;28;20022;-71
2022/08/09 00:39:27;;;;;;;5.05;2.63;;;18.80;90.80;;;18.30;78.39;101939.66;4138167;28;20023;-71
2022/08/09 00:41:28;;;;;;;4.40;1.92;;;18.80;90.90;;;18.30;78.81;101949.50;4136904;28;20019;-71
2022/08/09 00:43:30;;;;;;;8.40;2.60;;;18.70;91.10;;;18.29;78.89;101950.50;4137306;28;20026;-71
2022/08/09 00:45:31;;;;;;;5.18;2.10;;;18.70;91.10;;;18.25;79.49;101947.34;4135689;28;20041;-71
2022/08/09 00:47:32;;;;;;;3.90;2.20;;;18.60;91.20;;;18.18;79.28;101951.75;4136895;28;20053;-72
2022/08/09 00:49:35;;;;;;;4.10;1.77;;;18.60;91.20;;;18.10;79.71;101939.25;4137922;28;20022;-71
2022/08/09 00:51:37;;;;;;;7.53;2.67;;;18.50;91.30;;;18.17;79.94;101942.91;4120996;28;20031;-71
2022/08/09 00:53:38;;;;;;;4.03;2.35;;;18.60;91.50;;;18.08;80.51;101943.13;4136842;28;20031;-71
2022/08/09 00:55:40;;;;;;;5.03;2.17;;;18.50;91.60;;;18.00;80.84;101941.34;4136859;28;20093;-71
2022/08/09 00:57:41;;;;;;;4.25;2.15;;;18.40;91.70;;;17.90;81.47;101937.19;4136613;28;20029;-72
2022/08/09 00:59:43;;;;;;;4.25;2.10;;;18.40;91.90;;;17.86;81.99;101941.25;4136730;28;20052;-71
2022/08/09 01:01:47;;;;;;;3.92;2.10;;;18.30;92.00;;;17.85;81.82;101947.56;4136683;28;20034;-71
2022/08/09 01:04:05;;;;;;;4.22;2.28;;;18.30;92.00;;;17.83;81.81;101950.41;4120489;28;20030;-71
2022/08/09 01:06:34;;;;;;;7.38;2.58;;;18.20;92.00;;;17.75;82.09;101936.28;4128111;28;20036;-71
2022/08/09 01:09:15;;;;;;;7.35;2.13;;;18.20;92.10;;;17.81;82.03;101952.44;4152846;28;20034;-71
2022/08/09 01:12:03;;;;;;;5.00;2.53;;;18.20;92.20;;;17.76;82.00;101948.63;4124531;28;20041;-71
2022/08/09 01:14:15;;;;;;;3.30;2.03;;;18.20;92.10;;;17.73;82.30;101949.81;4119794;28;20050;-71
2022/08/09 01:16:23;;;;;;;7.30;2.15;;;18.20;92.20;;;17.67;83.02;101948.66;4139518;28;20077;-71
2022/08/09 01:18:30;;;;;;;4.88;2.10;;;18.10;92.40;;;17.65;82.90;101953.31;4152374;28;20065;-72
2022/08/09 01:21:05;;;;;;;3.17;2.00;;;18.10;92.50;;;17.59;83.20;101953.19;4137391;28;20037;-71
2022/08/09 01:23:31;;;;;;;;;;;18.00;92.60;;;17.49;84.20;101949.84;4144878;28;20036;-72
2022/08/09 01:26:01;;;;;;;5.22;2.15;;;18.00;92.70;;;17.47;83.98;101954.53;4143779;28;19964;-71
2022/08/09 01:28:05;;;;;;;4.40;2.10;;;17.90;92.70;;;17.45;84.57;101954.69;4136506;28;20533;-71
2022/08/09 01:30:07;;;;;;;3.72;1.98;;;17.90;92.90;;;17.42;84.76;101956.88;4136914;28;20114;-71
2022/08/09 01:32:12;;;;;;;5.32;2.20;;;17.90;93.00;;;17.37;85.03;101949.41;4137521;28;20505;-72
2022/08/09 01:34:20;;;;;;;4.80;2.63;;;17.80;93.10;;;17.38;84.75;101952.91;4136306;28;20030;-71
2022/08/09 01:36:24;;;;;;;4.55;2.50;;;17.80;93.10;;;17.32;85.16;101943.75;4136440;28;20038;-71
2022/08/09 01:38:30;;;;;;;6.50;2.30;;;17.70;93.20;;;17.33;85.41;101948.06;4136015;28;20077;-71
2022/08/09 01:40:34;;;;;;;3.40;2.38;;;17.70;93.30;;;17.28;85.73;101945.09;4136156;28;20034;-71
2022/08/09 01:42:35;;;;;;;;;;;17.70;93.40;;;17.22;86.27;101947.59;4136677;28;20405;-71
2022/08/09 01:44:38;;;;;;;5.20;2.50;;;17.60;93.50;;;17.21;85.90;101953.91;4135781;28;19916;-71
2022/08/09 01:46:44;;;;;;;4.70;2.33;;;17.60;93.50;;;17.17;86.62;101948.91;4136026;28;20030;-71
2022/08/09 01:48:47;;;;;;;4.20;2.20;;;17.60;93.70;;;17.13;87.17;101950.28;4135948;28;20026;-71
2022/08/09 01:50:51;;;;;;;3.85;2.05;;;17.50;93.80;;;17.10;87.17;101947.13;4137201;28;20379;-71
2022/08/09 01:52:54;;;;;;;;;;;17.60;93.80;;;17.03;87.57;101949.63;4136160;28;20048;-71
2022/08/09 01:54:57;;;;;;;4.32;2.47;;;17.50;93.90;;;17.04;87.75;101947.78;4136039;28;19914;-71
2022/08/09 01:57:07;;;;;;;5.32;2.75;;;17.50;94.00;;;17.02;87.83;101944.47;4136890;28;20060;-71
2022/08/09 01:59:16;;;;;;;7.65;2.67;;;17.50;94.00;;;16.99;87.80;101950.13;4135819;28;20026;-71
2022/08/09 02:01:19;;;;;;;5.18;2.58;;;17.40;94.00;;;16.90;88.18;101940.47;4135967;28;20481;-71
2022/08/09 02:03:21;;;;;;;5.25;2.40;;;17.40;94.10;;;16.90;88.30;101951.97;4135780;28;20026;-71
2022/08/09 02:05:23;;;;;;;4.50;2.53;;;17.30;94.20;;;16.86;88.86;101952.47;4135886;28;20041;-71
2022/08/09 02:07:26;;;;;;;5.30;2.28;;;17.30;94.30;;;16.84;89.24;101963.31;4135657;28;20022;-71
2022/08/09 02:09:30;;;;;;;7.72;2.78;;;17.20;94.50;;;16.75;89.49;101948.31;4119440;28;20197;-71
2022/08/09 02:11:31;;;;;;;4.70;2.88;;;17.20;94.60;;;16.71;90.02;101946.97;4119527;28;20027;-71
2022/08/09 02:13:34;;;;;;;6.50;3.30;;;17.10;94.80;;;16.66;90.18;101959.97;4130075;28;20061;-71
2022/08/09 02:15:42;;;;;;;3.13;2.40;;;17.10;94.80;;;16.66;90.31;101959.13;4151378;28;20037;-71
2022/08/09 02:17:45;;;;;;;4.13;2.53;;;17.00;94.90;;;16.61;90.82;101961.47;4136594;28;20050;-71
2022/08/09 02:19:46;;;;;;;5.18;3.05;;;17.00;95.00;;;16.51;91.01;101954.44;4119389;28;20018;-71
2022/08/09 02:21:54;;;;;;;5.43;2.88;;;17.00;95.10;;;16.53;91.56;101965.75;4135441;28;20494;-71
2022/08/09 02:23:58;;;;;;;11.05;3.28;;;16.90;95.30;;;16.45;91.90;101965.75;4135695;28;20501;-71
2022/08/09 02:26:01;;;;;;;5.15;3.13;;;16.90;95.40;;;16.39;92.55;101969.06;4141428;28;20056;-71
2022/08/09 02:28:34;;;;;;;5.63;2.80;;;16.80;95.50;;;16.36;92.36;101972.06;4135418;28;20469;-71
2022/08/09 02:30:44;;;;;;;6.93;2.50;;;16.80;95.60;;;16.31;92.84;101965.53;4136408;28;20401;-71
2022/08/09 02:32:47;;;;;;;5.82;3.00;;;16.80;95.80;;;16.28;92.98;101969.38;4135398;28;20088;-71
2022/08/09 02:34:56;;;;;;;3.28;2.55;;;16.70;95.90;;;16.27;93.23;101969.53;4135130;28;20034;-71
2022/08/09 02:37:01;;;;;;;6.68;2.97;;;16.70;95.90;;;16.26;93.48;101963.38;4135344;28;20105;-71
2022/08/09 02:39:07;;;;;;;5.15;2.55;;;16.70;96.00;;;16.25;93.40;101952.88;4135308;28;20480;-71
2022/08/09 02:41:12;;;;;;;6.60;3.00;;;16.60;96.10;;;16.30;93.17;101961.22;4135267;28;20453;-71
2022/08/09 02:43:14;;;;;;;5.50;3.00;;;16.70;96.10;;;16.29;93.49;101957.72;4135125;28;20038;-71
2022/08/09 02:45:33;;;;;;;6.25;3.13;;;16.70;96.20;;;16.26;93.60;101951.88;4135061;28;20429;-71
2022/08/09 02:47:35;;;;;;;5.70;2.88;;;16.70;96.40;;;16.30;93.39;101963.88;4135265;28;20030;-71
2022/08/09 02:49:46;;;;;;;3.88;2.72;;;16.70;96.30;;;16.27;93.46;101961.56;4136519;28;20037;-71
2022/08/09 02:51:55;;;;;;;4.53;2.80;;;16.70;96.30;;;16.27;94.15;101972.19;4135346;28;20105;-71
2022/08/09 02:53:58;;;;;;;5.60;3.03;;;16.70;96.50;;;16.25;94.06;101959.03;4135243;28;20509;-71
2022/08/09 02:56:02;;;;;;;5.63;3.38;;;16.60;96.50;;;16.26;93.50;101952.72;4134863;28;20074;-71
2022/08/09 02:58:04;;;;;;;7.28;2.97;;;16.70;96.50;;;16.27;93.92;101956.22;4135087;28;20061;-71
2022/08/09 03:00:10;;;;;;;5.55;2.92;;;16.70;96.60;;;16.27;93.99;101953.56;4134837;28;20405;-71
2022/08/09 03:02:15;;;;;;;5.40;3.00;;;16.70;96.60;;;16.27;93.90;101959.72;4135092;28;20073;-71
2022/08/09 03:04:18;;;;;;;7.40;3.38;;;16.70;96.60;;;16.26;93.74;101951.88;4135665;28;20390;-71
2022/08/09 03:06:22;;;;;;;6.45;3.10;;;16.70;96.60;;;16.28;93.62;101944.56;4141212;28;20034;-71
2022/08/09 03:08:24;;;;;;;5.50;2.90;;;16.70;96.60;;;16.30;94.03;101959.41;4134487;28;20128;-71
2022/08/09 03:10:26;;;;;;;6.68;3.22;;;16.70;96.70;;;16.28;93.94;101960.53;4134861;28;20042;-71
2022/08/09 03:12:28;;;;;;;4.18;2.97;;;16.70;96.70;;;16.27;93.68;101957.06;4134818;28;20030;-71
2022/08/09 03:14:30;;;;;;;7.35;3.00;;;16.70;96.80;;;16.25;93.85;101951.06;4141451;28;20030;-71
2022/08/09 03:16:32;;;;;;;5.70;3.10;;;16.70;96.80;;;16.26;93.94;101946.56;4134721;28;20213;-71
2022/08/09 03:18:35;;;;;;;5.22;3.15;;;16.70;96.80;;;16.28;93.83;101944.56;4134743;28;20116;-71
2022/08/09 03:20:37;;;;;;;3.70;2.95;;;16.70;96.90;;;16.24;93.97;101951.22;4134882;28;20018;-71
2022/08/09 03:22:42;;;;;;;3.88;2.85;;;16.70;96.90;;;16.18;94.26;101939.41;4134923;28;20034;-71
2022/08/09 03:24:43;;;;;;;5.07;3.20;;;16.60;96.90;;;16.16;94.24;101946.69;4137674;28;20029;-71
2022/08/09 03:26:47;;;;;;;4.60;3.30;;;16.60;97.00;;;16.19;94.09;101943.72;4138992;28;20026;-71
2022/08/09 03:28:49;;;;;;;4.95;2.90;;;16.60;97.10;;;16.19;94.30;101951.69;4135092;28;20023;-71
2022/08/09 03:30:51;;;;;;;4.95;3.25;;;16.60;97.10;;;16.18;94.33;101944.72;4135750;28;20153;-71
2022/08/09 03:32:55;;;;;;;7.32;3.35;;;16.60;97.10;;;16.17;94.59;101951.03;4135927;28;20036;-71
2022/08/09 03:34:57;;;;;;;6.03;3.15;;;16.60;97.20;;;16.15;94.38;101938.91;4134625;28;20058;-71
2022/08/09 03:36:58;;;;;;;4.22;2.88;;;16.60;97.20;;;16.11;94.57;101935.72;4135105;28;20054;-71
2022/08/09 03:38:59;;;;;;;4.22;2.60;;;16.60;97.20;;;16.14;94.59;101939.88;4134775;28;20113;-71
2022/08/09 03:41:00;;;;;;;5.35;3.50;;;16.60;97.30;;;16.18;94.66;101943.91;4134752;28;20037;-71
2022/08/09 03:43:01;;;;;;;7.55;3.70;;;16.60;97.40;;;16.12;94.21;101941.88;4118417;28;20490;-71
2022/08/09 03:45:03;;;;;;;4.90;3.03;;;16.60;97.30;;;16.15;94.24;101944.22;4138353;28;20026;-71
2022/08/09 03:47:04;;;;;;;4.53;2.85;;;16.60;97.40;;;16.11;94.57;101941.03;4134653;28;20117;-71
2022/08/09 03:49:06;;;;;;;4.78;3.13;;;16.60;97.40;;;16.11;94.82;101943.72;4134643;28;20030;-71
2022/08/09 03:51:08;;;;;;;3.95;2.88;;;16.60;97.50;;;16.07;94.78;101945.00;4134621;28;20068;-71
2022/08/09 03:53:10;;;;;;;6.03;3.20;;;16.50;97.50;;;16.06;95.52;101948.69;4134912;28;20054;-71
2022/08/09 03:55:12;;;;;;;6.65;3.05;;;16.50;97.70;;;16.04;95.18;101942.69;4134611;28;20031;-71
2022/08/09 03:57:14;;;;;;;7.35;2.90;;;16.40;97.70;;;15.99;95.08;101934.34;4134865;28;20077;-71
2022/08/09 03:59:16;;;;;;;4.45;2.92;;;16.40;97.80;;;15.95;95.33;101933.84;4147487;28;20057;-71
2022/08/09 04:01:17;;;;;;;7.78;3.15;;;16.50;97.90;;;15.92;95.98;101938.66;4150658;28;20563;-71
2022/08/09 04:03:19;;;;;;;4.43;2.92;;;16.40;98.00;;;15.90;95.78;101938.81;4150777;28;20072;-71
2022/08/09 04:05:20;;;;;;;3.03;2.60;;;16.40;98.00;;;15.93;95.82;101943.81;4150764;28;20030;-71
2022/08/09 04:07:21;;;;;;;5.05;3.70;;;16.40;98.10;;;15.91;96.41;101945.00;4150901;28;20080;-71
2022/08/09 04:09:22;;;;;;;10.43;4.00;;;16.30;98.20;;;15.87;96.39;101951.63;4134562;28;20094;-71
2022/08/09 04:11:23;;;;;;;5.13;4.30;;;16.30;98.20;;;15.83;96.18;101942.31;4134486;28;20035;-71
2022/08/09 04:13:24;;;;;;;5.10;2.88;;;16.30;98.30;;;15.89;96.10;101955.78;4134402;28;20027;-71
2022/08/09 04:15:25;;;;;;;6.15;2.97;;;16.30;98.30;;;15.89;96.07;101960.25;4144546;28;20073;-71
2022/08/09 04:17:26;;;;;;;5.47;3.00;;;16.30;98.30;;;15.83;96.65;101955.59;4150488;28;20133;-71
2022/08/09 04:19:27;;;;;;;7.70;3.95;;;16.30;98.50;;;15.83;96.96;101961.75;4127734;28;20023;-71
2022/08/09 04:21:28;;;;;;;5.40;3.50;;;16.30;98.50;;;15.77;96.64;101948.28;4138592;28;20457;-71
2022/08/09 04:23:28;;;;;;;7.68;3.13;;;16.30;98.50;;;15.83;96.92;101959.06;4138401;28;20030;-71
2022/08/09 04:25:30;;;;;;;3.53;2.85;;;16.30;98.70;;;15.79;96.98;101959.56;4144670;28;20023;-71
2022/08/09 04:27:31;;;;;;;6.70;3.47;;;16.20;98.70;;;15.76;97.39;101955.41;4138479;28;20496;-71
2022/08/09 04:29:31;;;;;;;5.18;3.17;;;16.20;98.90;;;15.74;97.21;101961.88;4138375;28;20472;-71
2022/08/09 04:31:32;;;;;;;4.20;3.15;;;16.20;98.90;;;15.69;97.50;101951.72;4138315;28;20061;-71
2022/08/09 04:33:33;;;;;;;6.03;3.45;;;16.20;98.90;;;15.68;97.81;101951.88;4136879;28;20569;-71
2022/08/09 04:35:34;;;;;;;7.10;3.13;;;16.20;99.00;;;15.71;97.77;101960.34;4153290;28;20041;-71
2022/08/09 04:37:36;;;;;;;5.18;3.50;;;16.10;99.00;;;15.68;97.84;101963.34;4154493;28;20564;-71
2022/08/09 04:39:37;;;;;;;6.00;3.33;;;16.20;99.10;;;15.63;97.78;101951.50;4169733;28;20068;-71
2022/08/09 04:41:38;;;;;;;5.72;3.40;;;16.10;99.10;;;15.68;97.77;101955.34;4153247;28;20018;-71
2022/08/09 04:43:39;;;;;;;4.05;2.92;;;16.10;99.20;;;15.64;97.41;101954.03;4154433;28;20025;-71
2022/08/09 04:45:40;;;;;;;5.80;3.50;;;16.10;99.20;;;15.73;97.52;101955.72;4154177;28;20022;-71
2022/08/09 04:47:41;;;;;;;8.30;3.28;;;16.10;99.30;;;15.73;97.25;101957.56;4154329;28;20030;-71
2022/08/09 04:49:41;;;;;;;5.97;3.53;;;16.20;99.20;;;15.73;97.17;101965.53;4169424;28;20033;-71
2022/08/09 04:51:42;;;;;;;4.57;3.42;;;16.10;99.20;;;15.70;97.35;101960.53;4154338;28;20033;-71
2022/08/09 04:53:43;;;;;;;6.53;3.58;;;16.20;99.20;;;15.68;97.63;101959.88;4136768;28;20026;-71
2022/08/09 04:55:44;;;;;;;7.20;3.00;;;16.20;99.30;;;15.64;97.35;101956.69;4154105;28;20026;-71
2022/08/09 04:57:45;;;;;;;6.65;4.07;;;16.10;99.30;;;15.69;97.38;101969.50;4152981;28;20030;-71
2022/08/09 04:59:46;;;;;;;7.40;3.50;;;16.10;99.40;;;15.70;97.03;101973.84;4153940;28;20026;-71
2022/08/09 05:01:47;;;;;;;7.25;3.45;;;16.10;99.30;;;15.72;97.33;101966.50;4154495;28;20025;-71
2022/08/09 05:03:49;;;;;;;7.55;4.13;;;16.20;99.40;;;15.73;97.28;101970.84;4154058;28;20485;-71
2022/08/09 05:05:50;;;;;;;6.15;3.45;;;16.20;99.40;;;15.69;97.06;101966.84;4153931;28;20378;-71
2022/08/09 05:07:52;;;;;;;8.07;4.00;;;16.20;99.40;;;15.73;97.41;101970.84;4153065;28;20520;-71
2022/08/09 05:09:53;;;;;;;5.55;3.28;;;16.20;99.40;;;15.74;97.21;101985.84;4153996;28;20083;-71
2022/08/09 05:11:54;;;;;;;8.50;3.42;;;16.20;99.50;;;15.72;97.29;101977.16;4154162;28;20030;-71
2022/08/09 05:13:54;;;;;;;5.03;3.35;;;16.20;99.50;;;15.68;97.01;101979.28;4153580;28;20477;-71
2022/08/09 05:15:55;;;;;;;5.85;3.58;;;16.20;99.50;;;15.71;97.05;101978.16;4152714;28;20038;-71
2022/08/09 05:17:56;;;;;;;6.47;3.70;;;16.20;99.50;;;15.76;97.10;101986.50;4153626;28;20061;-71
2022/08/09 05:19:57;;;;;;;7.63;3.55;;;16.20;99.50;;;15.76;96.55;101979.34;4141922;28;20027;-71
2022/08/09 05:21:58;;;;;;;5.88;3.70;;;16.20;99.50;;;15.75;96.82;101974.19;4137458;28;20038;-71
2022/08/09 05:23:59;;;;;;;7.88;3.90;;;16.30;99.50;;;15.81;96.35;101994.81;4136481;28;20030;-71
2022/08/09 05:26:00;;;;;;;7.85;3.83;;;16.30;99.50;;;15.86;96.30;101987.22;4143902;28;20493;-71
2022/08/09 05:28:01;;;;;;;6.53;3.78;;;16.30;99.50;;;15.93;95.87;101996.22;4136206;28;20037;-71
2022/08/09 05:30:03;;;;;;;7.25;3.28;;;16.30;99.40;;;15.88;95.69;101985.22;4135869;28;20038;-71
2022/08/09 05:32:04;;;;;;;7.05;3.65;;;16.40;99.30;;;15.92;95.76;101992.72;4136648;28;20034;-71
2022/08/09 05:34:05;;;;;;;5.15;3.72;;;16.40;99.40;;;15.94;96.04;101995.22;4136236;28;20038;-71
2022/08/09 05:36:06;;;;;;;6.97;3.22;;;16.40;99.40;;;15.89;95.89;101998.34;4137311;28;20061;-71
2022/08/09 05:38:07;;;;;;;5.18;3.40;;;16.40;99.30;;;16.00;95.47;101998.09;4136122;28;20026;-71
2022/08/09 05:40:09;;;;;;;8.02;3.75;;;16.40;99.30;;;16.08;95.34;102002.59;4137315;28;20065;-71
2022/08/09 05:42:14;;;;;;;8.38;3.17;;;16.50;99.30;;;15.98;95.05;101988.56;4152181;28;20496;-71
2022/08/09 05:44:15;;;;;;;8.60;3.45;;;16.50;99.20;;;16.02;95.41;102001.41;4146298;28;20022;-71
2022/08/09 05:46:16;;;;;;;4.63;3.17;;;16.50;99.30;;;16.07;95.68;102008.91;4119728;28;20433;-71
2022/08/09 05:48:17;;;;;;;4.22;3.33;;;16.50;99.30;;;16.06;95.50;102004.59;4136170;28;20026;-71
2022/08/09 05:50:18;;;;;;;5.32;3.38;;;16.50;99.30;;;16.09;95.33;102017.59;4137137;28;20030;-71
2022/08/09 05:52:20;;;;;;;6.25;3.28;;;16.50;99.30;;;16.11;95.25;102001.44;4135976;28;20437;-71
2022/08/09 05:54:21;;;;;;;7.03;3.75;;;16.60;99.30;;;16.12;95.33;102013.75;4135880;28;20066;-71
2022/08/09 05:56:21;;;;;;;6.63;3.50;;;16.60;99.30;;;16.12;95.32;102006.63;4135583;28;20039;-71
2022/08/09 05:58:22;;;;;;;8.38;3.28;;;16.60;99.30;;;16.16;94.83;102007.94;4137006;28;20089;-71
2022/08/09 06:00:29;;;;;;;5.10;3.20;;;16.60;99.20;;;16.21;94.83;102008.31;4135638;28;20026;-71
2022/08/09 06:02:30;;;;;;;7.85;3.30;;;16.70;99.20;;;16.19;94.68;102002.28;4137048;28;20030;-71
2022/08/09 06:04:31;;;;;;;6.40;3.03;;;16.70;99.20;;;16.24;94.51;102007.16;4135718;28;20034;-71
2022/08/09 06:06:32;;;;;;;7.18;3.65;;;16.70;99.20;;;16.30;94.42;102020.66;4136923;28;20065;-71
2022/08/09 06:08:33;;;;;;;6.95;3.30;;;16.70;99.20;;;16.34;94.11;102013.16;4135819;28;20026;-71
2022/08/09 06:10:37;;;;;;;6.38;3.85;;;16.80;99.10;;;16.41;93.63;102020.34;4135616;28;20034;-71
2022/08/09 06:12:38;;;;;;;5.13;3.40;;;16.80;99.00;;;16.43;93.68;102017.50;4135410;28;20469;-71
2022/08/09 06:14:39;;;;;;;7.22;3.72;;;16.90;99.00;;;16.51;93.25;102020.19;4135404;28;20034;-71
2022/08/09 06:16:39;;;;;;;5.93;3.45;;;16.90;98.90;;;16.56;92.89;102025.88;4137940;28;20076;-71
2022/08/09 06:18:40;;;;;;;6.90;3.03;;;17.00;98.90;;;16.58;93.09;102021.22;4151318;28;20034;-71
2022/08/09 06:20:41;;;;;;;5.20;3.38;;;17.00;98.80;;;16.62;92.74;102027.06;4136788;28;20454;-71
2022/08/09 06:22:42;;;;;;;5.50;3.17;;;17.10;98.80;;;16.61;92.62;102014.75;4135600;28;20085;-71
2022/08/09 06:24:43;;;;;;;6.07;3.20;;;17.10;98.70;;;16.68;92.58;102023.75;4138618;28;20029;-71
2022/08/09 06:26:44;;;;;;;8.52;3.85;;;17.10;98.70;;;16.63;92.73;102016.25;4139256;28;20030;-72
2022/08/09 06:28:45;;;;;;;9.45;2.97;;;17.20;98.70;;;16.77;92.37;102028.09;4135033;28;20022;-71
2022/08/09 06:30:46;;;;;;;6.20;3.22;;;17.20;98.70;;;16.80;92.30;102019.75;4142199;28;20050;-71
2022/08/09 06:32:47;;;;;;;7.38;3.70;;;17.20;98.70;;;16.87;91.96;102036.78;4136530;28;20027;-71
2022/08/09 06:34:48;;;;;;;6.97;3.40;;;17.30;98.60;;;16.92;91.95;102029.09;4135083;28;20030;-71
2022/08/09 06:36:50;;;;;;;7.47;3.15;;;17.40;98.60;;;16.97;91.87;102026.75;4136130;28;20026;-71
2022/08/09 06:38:51;;;;;;;7.53;3.70;;;17.40;98.50;;;17.01;91.24;102028.09;4159588;28;20025;-71
2022/08/09 06:40:52;;;;;;;8.10;3.45;;;17.40;98.40;;;17.21;90.15;102025.91;4151489;28;20037;-71
2022/08/09 06:42:52;;;;;;;6.93;3.80;;;17.50;98.20;;;17.23;90.00;102021.28;4151989;28;20053;-71
2022/08/09 06:44:54;;;;;;;7.15;3.15;;;17.60;98.10;;;17.33;89.48;102025.41;4151171;28;20034;-71
2022/08/09 06:46:55;;;;;;;6.97;3.72;;;17.70;98.00;;;17.41;88.97;102025.38;4152681;28;20411;-71
2022/08/09 06:48:55;;;;;;;7.00;3.33;;;17.70;97.80;;;17.50;88.46;102028.91;4151213;28;20046;-70
2022/08/09 06:50:58;;;;;;;5.45;3.05;;;17.80;97.70;;;17.47;88.55;102019.38;4151350;28;20385;-71
2022/08/09 06:53:00;;;;;;;7.00;2.90;;;17.90;97.60;;;17.58;88.26;102028.91;4134980;28;20568;-71
2022/08/09 06:55:01;;;;;;;6.18;3.08;;;17.90;97.50;;;17.53;88.14;102017.88;4151106;28;20135;-70
2022/08/09 06:57:02;;;;;;;5.82;3.28;;;18.00;97.50;;;17.64;88.07;102025.56;4134963;28;20518;-71
2022/08/09 06:59:02;;;;;;;5.82;3.30;;;18.10;97.40;;;17.69;87.56;102023.19;4151035;28;20060;-71
2022/08/09 07:01:04;;;;;;;7.65;3.15;;;18.10;97.20;;;17.72;87.25;102022.84;4151488;28;20512;-71
2022/08/09 07:03:05;;;;;;;6.78;3.17;;;18.20;97.10;;;17.83;86.27;102035.03;4152451;28;20026;-71
2022/08/09 07:05:06;;;;;;;7.15;3.35;;;18.30;96.80;;;17.99;84.90;102025.09;4151232;28;20026;-71
2022/08/09 07:07:07;;;;;;;8.25;4.10;;;18.30;96.50;;;17.99;84.52;102025.09;4151164;28;20105;-71
2022/08/09 07:09:08;;;;;;;8.98;3.30;;;18.40;96.20;;;18.03;83.96;102018.41;4151202;28;20528;-71
2022/08/09 07:11:09;;;;;;;5.55;2.65;;;18.50;96.00;;;18.13;83.99;102020.84;4151610;28;20033;-71
2022/08/09 07:13:10;;;;;;;6.68;3.17;;;18.60;96.00;;;18.23;83.85;102038.34;4151140;28;20026;-71
2022/08/09 07:15:11;;;;;;;6.50;3.08;;;18.60;96.00;;;18.27;83.66;102028.16;4150829;28;20030;-71
2022/08/09 07:17:13;;;;;;;8.40;3.28;;;18.70;95.90;;;18.28;83.52;102027.13;4150488;28;20054;-71
2022/08/09 07:19:15;;;;;;;6.13;3.15;;;18.80;95.80;;;18.43;82.60;102033.38;4146416;28;20517;-71
2022/08/09 07:21:16;;;;;;;5.63;2.88;;;18.80;95.70;;;18.48;82.29;102031.03;4142608;28;20049;-71
2022/08/09 07:23:17;;;;;;;4.63;3.00;;;18.90;95.50;;;18.67;81.41;102037.78;4134706;28;20164;-71
2022/08/09 07:25:19;;;;;;;4.68;2.70;;;19.00;95.30;;;18.58;81.74;102020.97;4156836;28;20029;-71
2022/08/09 07:27:20;;;;;;;4.65;2.90;;;19.10;95.30;;;18.76;81.78;102032.22;4136055;28;20110;-71
2022/08/09 07:29:21;;;;;;;5.82;3.08;;;19.20;95.30;;;18.79;81.21;102023.84;4150906;28;20037;-71
2022/08/09 07:31:22;;;;;;;5.70;2.97;;;19.30;95.10;;;18.83;81.22;102020.81;4146312;28;20021;-71
2022/08/09 07:33:23;;;;;;;8.07;2.90;;;19.30;95.00;;;18.93;81.15;102034.78;4134416;28;20092;-70
2022/08/09 07:35:24;;;;;;;5.05;2.72;;;19.30;95.00;;;18.97;81.28;102026.19;4135898;28;20508;-70
2022/08/09 07:37:25;;;;;;;5.90;2.72;;;19.40;95.00;;;19.02;79.94;102023.00;4134670;28;20042;-71
2022/08/09 07:39:26;;;;;;;6.00;3.00;;;19.50;94.50;;;19.13;79.67;102035.94;4134680;28;20027;-71
2022/08/09 07:41:26;;;;;;;8.82;2.85;;;19.60;94.50;;;19.22;78.75;102029.50;4135740;28;20081;-70
2022/08/09 07:43:27;;;;;;;7.47;2.95;;;19.60;94.20;;;19.27;78.86;102032.44;4134772;28;20027;-71
2022/08/09 07:45:30;;;;;;;6.70;2.90;;;19.70;94.20;;;19.39;78.35;102033.72;4118314;28;20407;-71
2022/08/09 07:47:31;;;;;;;7.80;2.90;;;19.80;94.10;;;19.56;77.10;102021.81;4135726;28;20031;-71
2022/08/09 07:49:32;;;;;;;7.47;2.40;;;19.90;93.80;;;19.62;76.90;102031.78;4134711;28;20026;-71
2022/08/09 07:51:33;;;;;;;8.38;3.03;;;20.00;93.70;;;19.68;76.43;102024.91;4135889;28;20502;-71
2022/08/09 07:53:34;;;;;;;6.03;2.35;;;20.10;93.40;;;19.73;76.36;102017.97;4125909;28;20120;-70
2022/08/09 07:55:35;;;;;;;6.07;3.17;;;20.20;93.40;;;19.93;74.45;102020.91;4153891;28;20139;-70
2022/08/09 07:57:36;;;;;;;6.22;2.35;;;20.30;92.90;;;19.99;74.83;102022.00;4154931;28;20053;-70
2022/08/09 07:59:37;;;;;;;6.38;2.92;;;20.40;93.00;;;19.99;75.13;102019.31;4154922;28;20481;-70
2022/08/09 08:01:38;;;;;;;8.30;2.63;;;20.50;92.90;;;20.13;74.83;102023.84;4153712;28;20105;-71
2022/08/09 08:03:39;;;;;;;4.22;2.67;;;20.50;92.90;;;20.15;74.90;102022.63;4133926;28;20026;-71
2022/08/09 08:05:40;;;;;;;7.13;2.40;;;20.60;92.90;;;20.28;74.39;102022.00;4137405;28;20067;-70
2022/08/09 08:07:41;;;;;;;4.80;2.58;;;20.70;92.70;;;20.43;74.08;102028.97;4137971;28;20509;-71
2022/08/09 08:09:42;;;;;;;5.45;2.58;;;20.80;92.70;;;20.51;72.92;102014.63;4136888;28;20065;-72
2022/08/09 08:11:43;;;;;;;4.72;2.58;;;20.90;92.30;;;20.66;71.77;102026.13;4137922;28;20109;-71
2022/08/09 08:13:44;;;;;;;6.10;3.00;;;21.00;92.00;;;20.69;70.94;102014.19;4133531;28;20061;-70
2022/08/09 08:15:45;;;;;;;6.85;2.92;;;21.10;91.60;;;20.84;70.34;102026.53;4152710;28;20022;-71
2022/08/09 08:17:50;;;;;;;3.97;2.50;;;21.20;91.30;;;20.95;70.40;102019.81;4152849;28;20046;-71
2022/08/09 08:19:51;;;;;;;6.45;2.85;;;21.30;91.50;;;21.05;69.06;102024.84;4143496;28;20462;-71
2022/08/09 08:21:52;;;;;;;8.77;2.60;;;21.40;90.90;;;21.14;68.79;102021.03;4153007;28;20033;-71
2022/08/09 08:23:53;;;;;;;5.40;2.63;;;21.50;90.80;;;21.22;68.29;102015.50;4138140;28;20050;-72
2022/08/09 08:25:54;;;;;;;6.07;2.60;;;21.60;90.70;;;21.28;67.66;102004.00;4142976;28;20034;-71
2022/08/09 08:27:54;;;;;;;3.10;2.30;;;21.70;90.50;;;21.42;67.74;102011.09;4136754;28;20069;-71
2022/08/09 08:29:55;;;;;;;4.80;2.72;;;21.80;90.50;;;21.53;67.44;102003.34;4137762;28;20034;-71
2022/08/09 08:31:56;;;;;;;9.25;2.78;;;21.90;90.40;;;21.66;66.41;102001.75;4136695;28;20110;-72